createdAt,value
2019-05-07T00:00:32.879Z,5.10
2019-05-07T00:03:03.246Z,5.10
2019-05-07T00:05:33.209Z,5.10
2019-05-07T00:08:02.992Z,5.10
2019-05-07T00:10:33.091Z,5.10
2019-05-07T00:13:02.468Z,5.10
2019-05-07T00:15:32.818Z,5.00
2019-05-07T00:18:03.543Z,5.00
2019-05-07T00:20:32.868Z,4.90
2019-05-07T00:23:02.924Z,5.00
2019-05-07T00:25:32.824Z,4.90
2019-05-07T00:28:02.740Z,5.00
2019-05-07T00:30:33.177Z,5.00
2019-05-07T00:33:02.927Z,5.00
2019-05-07T00:35:42.953Z,5.00
2019-05-07T00:38:13.411Z,4.80
2019-05-07T00:40:49.380Z,4.70
2019-05-07T00:43:19.773Z,4.70
2019-05-07T00:45:52.899Z,4.70
2019-05-07T00:48:23.467Z,4.70
2019-05-07T00:50:53.999Z,4.80
2019-05-07T00:53:23.702Z,4.80
2019-05-07T00:55:52.703Z,4.80
2019-05-07T00:58:26.280Z,4.80
2019-05-07T01:00:53.091Z,4.70
2019-05-07T01:03:22.279Z,4.70
2019-05-07T01:05:52.684Z,4.60
2019-05-07T01:08:22.588Z,4.60
2019-05-07T01:10:52.947Z,4.50
2019-05-07T01:13:23.404Z,4.50
2019-05-07T01:15:53.194Z,4.50
2019-05-07T01:18:23.338Z,4.50
2019-05-07T01:20:53.364Z,4.50
2019-05-07T01:23:22.967Z,4.50
2019-05-07T01:25:52.604Z,4.50
2019-05-07T01:28:22.354Z,4.50
2019-05-07T01:30:53.218Z,4.40
2019-05-07T01:33:29.335Z,4.50
2019-05-07T01:36:09.007Z,4.40
2019-05-07T01:38:37.745Z,4.30
2019-05-07T01:41:06.479Z,4.40
2019-05-07T01:43:35.220Z,4.40
2019-05-07T01:46:04.084Z,4.40
2019-05-07T01:48:32.878Z,4.40
2019-05-07T01:51:03.443Z,4.60
2019-05-07T01:53:32.436Z,4.50
2019-05-07T01:56:03.322Z,4.60
2019-05-07T01:58:33.084Z,4.50
2019-05-07T02:01:02.804Z,4.40
2019-05-07T02:03:36.221Z,4.40
2019-05-07T02:06:23.076Z,4.30
2019-05-07T02:09:10.905Z,4.30
2019-05-07T02:11:42.335Z,4.30
2019-05-07T02:14:11.163Z,4.40
2019-05-07T02:16:41.737Z,4.40
2019-05-07T02:19:12.503Z,4.40
2019-05-07T02:21:42.340Z,4.30
2019-05-07T02:24:12.609Z,4.40
2019-05-07T02:26:42.902Z,4.30
2019-05-07T02:29:12.243Z,4.30
2019-05-07T02:31:44.128Z,4.40
2019-05-07T02:34:14.115Z,4.40
2019-05-07T02:36:44.322Z,4.30
2019-05-07T02:39:14.776Z,4.10
2019-05-07T02:41:44.410Z,4.10
2019-05-07T02:44:14.092Z,4.20
2019-05-07T02:46:52.871Z,4.30
2019-05-07T02:49:23.556Z,4.30
2019-05-07T02:51:54.081Z,4.30
2019-05-07T02:54:27.617Z,4.10
2019-05-07T02:56:56.342Z,4.00
2019-05-07T02:59:25.114Z,4.00
2019-05-07T03:01:54.015Z,3.90
2019-05-07T03:04:25.149Z,3.90
2019-05-07T03:06:54.204Z,3.90
2019-05-07T03:09:23.436Z,3.90
2019-05-07T03:11:53.014Z,3.90
2019-05-07T03:14:23.446Z,4.00
2019-05-07T03:16:53.680Z,4.10
2019-05-07T03:19:24.277Z,4.10
2019-05-07T03:21:54.310Z,4.20
2019-05-07T03:24:38.735Z,4.10
2019-05-07T03:27:07.548Z,4.20
2019-05-07T03:29:37.742Z,4.10
2019-05-07T03:32:28.029Z,4.20
2019-05-07T03:35:06.048Z,4.20
2019-05-07T03:37:36.167Z,4.20
2019-05-07T03:40:04.292Z,4.30
2019-05-07T03:42:33.876Z,4.30
2019-05-07T03:45:04.452Z,4.20
2019-05-07T03:47:34.814Z,4.20
2019-05-07T03:50:04.494Z,4.20
2019-05-07T03:52:33.742Z,4.20
2019-05-07T03:55:03.745Z,4.30
2019-05-07T03:57:33.354Z,4.30
2019-05-07T04:00:04.305Z,4.30
2019-05-07T04:02:33.528Z,4.20
2019-05-07T04:05:04.268Z,4.20
2019-05-07T04:07:33.606Z,4.20
2019-05-07T04:10:04.625Z,4.20
2019-05-07T04:12:34.221Z,4.20
2019-05-07T04:15:03.669Z,4.20
2019-05-07T04:17:33.783Z,4.00
2019-05-07T04:20:04.575Z,4.10
2019-05-07T04:22:34.537Z,4.10
2019-05-07T04:25:13.187Z,4.00
2019-05-07T04:27:46.280Z,4.00
2019-05-07T04:30:13.308Z,4.00
2019-05-07T04:32:52.782Z,4.00
2019-05-07T04:35:24.280Z,4.00
2019-05-07T04:37:53.286Z,4.10
2019-05-07T04:40:23.955Z,4.10
2019-05-07T04:42:53.811Z,4.00
2019-05-07T04:45:23.502Z,4.00
2019-05-07T04:47:53.849Z,4.00
2019-05-07T04:50:37.777Z,3.90
2019-05-07T04:52:54.935Z,3.90
2019-05-07T04:55:23.690Z,3.80
2019-05-07T04:57:53.328Z,3.90
2019-05-07T05:00:23.039Z,3.90
2019-05-07T05:03:12.756Z,3.90
2019-05-07T05:05:43.267Z,4.00
2019-05-07T05:08:13.457Z,4.10
2019-05-07T05:10:43.301Z,4.10
2019-05-07T05:13:12.982Z,4.10
2019-05-07T05:15:43.142Z,4.10
2019-05-07T05:18:12.692Z,4.20
2019-05-07T05:20:43.547Z,4.30
2019-05-07T05:23:29.002Z,4.30
2019-05-07T05:25:57.860Z,4.30
2019-05-07T05:28:26.664Z,4.30
2019-05-07T05:30:57.067Z,4.30
2019-05-07T05:33:25.897Z,4.30
2019-05-07T05:35:54.705Z,4.30
2019-05-07T05:38:23.426Z,4.40
2019-05-07T05:40:52.307Z,4.50
2019-05-07T05:43:29.010Z,4.60
2019-05-07T05:45:59.406Z,4.70
2019-05-07T05:48:28.212Z,4.80
2019-05-07T05:51:02.522Z,4.80
2019-05-07T05:53:32.624Z,4.90
2019-05-07T05:56:02.653Z,4.90
2019-05-07T05:58:34.506Z,4.90
2019-05-07T06:01:22.586Z,5.00
2019-05-07T06:04:09.452Z,5.10
2019-05-07T06:06:45.801Z,5.20
2019-05-07T06:09:19.253Z,5.30
2019-05-07T06:11:55.710Z,5.40
2019-05-07T06:14:33.024Z,5.50
2019-05-07T06:17:15.093Z,5.60
2019-05-07T06:20:03.749Z,5.70
2019-05-07T06:22:36.857Z,5.70
2019-05-07T06:25:15.286Z,5.80
2019-05-07T06:27:45.783Z,5.80
2019-05-07T06:30:15.830Z,5.70
2019-05-07T06:32:44.546Z,5.70
2019-05-07T06:35:13.475Z,5.70
2019-05-07T06:37:43.004Z,5.80
2019-05-07T06:40:13.898Z,5.80
2019-05-07T06:42:44.352Z,5.90
2019-05-07T06:45:27.685Z,6.00
2019-05-07T06:47:56.406Z,6.00
2019-05-07T06:50:25.208Z,6.10
2019-05-07T06:52:55.134Z,6.20
2019-05-07T06:55:23.888Z,6.20
2019-05-07T06:57:53.167Z,6.40
2019-05-07T07:00:24.689Z,6.40
2019-05-07T07:02:58.248Z,6.30
2019-05-07T07:05:33.002Z,6.40
2019-05-07T07:08:22.848Z,6.50
2019-05-07T07:11:02.829Z,6.50
2019-05-07T07:13:32.345Z,6.50
2019-05-07T07:16:01.909Z,6.50
2019-05-07T07:18:32.303Z,6.60
2019-05-07T07:21:02.179Z,6.60
2019-05-07T07:23:32.312Z,6.60
2019-05-07T07:26:03.202Z,6.70
2019-05-07T07:28:32.601Z,6.80
2019-05-07T07:31:03.578Z,6.80
2019-05-07T07:33:34.037Z,6.90
2019-05-07T07:36:02.873Z,6.80
2019-05-07T07:38:38.063Z,6.80
2019-05-07T07:41:12.738Z,6.90
2019-05-07T07:43:42.020Z,7.00
2019-05-07T07:46:13.116Z,6.90
2019-05-07T07:48:43.338Z,7.00
2019-05-07T07:51:13.887Z,7.00
2019-05-07T07:53:42.556Z,7.00
2019-05-07T07:56:29.362Z,7.10
2019-05-07T07:59:05.297Z,7.10
2019-05-07T08:01:38.410Z,7.20
2019-05-07T08:04:07.263Z,7.10
2019-05-07T08:06:37.653Z,7.10
2019-05-07T08:09:08.592Z,7.10
2019-05-07T08:11:37.604Z,7.20
2019-05-07T08:14:07.388Z,7.30
2019-05-07T08:16:36.305Z,7.20
2019-05-07T08:19:18.362Z,7.20
2019-05-07T08:21:35.522Z,7.30
2019-05-07T08:24:04.650Z,7.30
2019-05-07T08:26:33.375Z,7.40
2019-05-07T08:29:02.915Z,7.40
2019-05-07T08:31:45.635Z,7.50
2019-05-07T08:34:16.136Z,7.60
2019-05-07T08:36:44.890Z,7.50
2019-05-07T08:39:13.611Z,7.60
2019-05-07T08:41:42.432Z,7.70
2019-05-07T08:44:15.413Z,7.80
2019-05-07T08:46:44.790Z,7.60
2019-05-07T08:49:15.202Z,7.70
2019-05-07T08:52:03.546Z,7.70
2019-05-07T08:54:33.163Z,7.60
2019-05-07T08:57:02.464Z,7.80
2019-05-07T08:59:32.278Z,7.80
2019-05-07T09:02:02.941Z,7.90
2019-05-07T09:04:32.708Z,7.90
2019-05-07T09:07:02.695Z,8.10
2019-05-07T09:09:34.267Z,8.00
2019-05-07T09:12:03.291Z,7.80
2019-05-07T09:14:32.843Z,7.90
2019-05-07T09:17:02.587Z,7.90
2019-05-07T09:19:46.079Z,7.90
2019-05-07T09:22:03.079Z,8.00
2019-05-07T09:24:33.339Z,8.10
2019-05-07T09:27:04.189Z,8.20
2019-05-07T09:29:51.868Z,8.30
2019-05-07T09:32:22.768Z,8.40
2019-05-07T09:34:53.360Z,8.30
2019-05-07T09:37:23.722Z,8.50
2019-05-07T09:39:52.603Z,8.50
2019-05-07T09:42:22.592Z,8.60
2019-05-07T09:44:52.928Z,8.80
2019-05-07T09:47:22.085Z,9.00
2019-05-07T09:50:03.838Z,8.90
2019-05-07T09:52:22.879Z,8.80
2019-05-07T09:54:52.807Z,8.80
2019-05-07T09:57:30.400Z,8.70
2019-05-07T09:59:53.011Z,8.70
2019-05-07T10:02:22.875Z,8.70
2019-05-07T10:04:52.695Z,8.60
2019-05-07T10:07:22.449Z,8.60
2019-05-07T10:09:52.281Z,8.60
2019-05-07T10:12:23.163Z,8.70
2019-05-07T10:14:53.452Z,8.80
2019-05-07T10:17:26.744Z,8.80
2019-05-07T10:19:56.146Z,8.70
2019-05-07T10:22:25.091Z,8.80
2019-05-07T10:24:53.798Z,9.00
2019-05-07T10:27:22.592Z,9.00
2019-05-07T10:29:53.024Z,8.40
2019-05-07T10:32:21.861Z,8.50
2019-05-07T10:34:52.438Z,8.60
2019-05-07T10:37:21.005Z,8.60
2019-05-07T10:39:51.866Z,8.60
2019-05-07T10:42:22.602Z,8.60
2019-05-07T10:45:04.720Z,8.60
2019-05-07T10:47:41.874Z,8.50
2019-05-07T10:50:35.408Z,8.60
2019-05-07T10:52:55.264Z,8.70
2019-05-07T10:55:23.991Z,8.80
2019-05-07T10:57:52.991Z,8.90
2019-05-07T11:00:25.597Z,8.90
2019-05-07T11:02:54.343Z,8.70
2019-05-07T11:05:23.112Z,8.60
2019-05-07T11:07:53.697Z,8.40
2019-05-07T11:10:22.522Z,8.40
2019-05-07T11:12:51.745Z,8.50
2019-05-07T11:15:22.005Z,8.50
2019-05-07T11:17:55.241Z,8.50
2019-05-07T11:20:24.115Z,8.60
2019-05-07T11:22:52.883Z,8.50
2019-05-07T11:25:22.510Z,8.40
2019-05-07T11:27:52.396Z,8.30
2019-05-07T11:30:22.921Z,8.20
2019-05-07T11:32:52.382Z,8.10
2019-05-07T11:35:22.929Z,8.10
2019-05-07T11:37:52.205Z,8.10
2019-05-07T11:40:22.872Z,8.00
2019-05-07T11:43:13.038Z,7.90
2019-05-07T11:45:43.594Z,7.90
2019-05-07T11:48:13.338Z,7.80
2019-05-07T11:50:59.667Z,7.70
2019-05-07T11:53:22.041Z,7.70
2019-05-07T11:55:52.394Z,7.70
2019-05-07T11:58:22.020Z,7.70
2019-05-07T12:00:55.368Z,7.60
2019-05-07T12:03:24.570Z,7.50
2019-05-07T12:05:53.354Z,7.40
2019-05-07T12:08:26.516Z,7.40
2019-05-07T12:10:52.525Z,7.60
2019-05-07T12:13:21.859Z,7.60
2019-05-07T12:15:52.158Z,7.60
2019-05-07T12:18:22.674Z,7.60
2019-05-07T12:20:54.112Z,7.40
2019-05-07T12:23:22.679Z,7.40
2019-05-07T12:25:52.896Z,7.60
2019-05-07T12:28:22.472Z,7.60
2019-05-07T12:31:09.605Z,7.60
2019-05-07T12:33:44.436Z,7.80
2019-05-07T12:36:14.784Z,7.90
2019-05-07T12:38:43.598Z,7.90
2019-05-07T12:41:33.835Z,7.90
2019-05-07T12:44:04.619Z,7.70
2019-05-07T12:46:35.058Z,7.90
2019-05-07T12:49:03.879Z,7.90
2019-05-07T12:51:37.516Z,7.70
2019-05-07T12:54:06.502Z,7.80
2019-05-07T12:56:35.303Z,8.00
2019-05-07T12:59:04.367Z,7.90
2019-05-07T13:01:34.739Z,7.90
2019-05-07T13:04:16.846Z,8.00
2019-05-07T13:06:56.203Z,8.20
2019-05-07T13:09:24.956Z,8.20
2019-05-07T13:11:53.758Z,8.20
2019-05-07T13:14:22.590Z,8.10
2019-05-07T13:16:52.290Z,8.20
2019-05-07T13:19:22.615Z,8.30
2019-05-07T13:22:04.139Z,8.50
2019-05-07T13:24:32.909Z,8.50
2019-05-07T13:27:03.262Z,8.40
2019-05-07T13:29:33.115Z,8.50
2019-05-07T13:32:03.667Z,8.40
2019-05-07T13:34:34.186Z,8.50
2019-05-07T13:37:05.047Z,8.50
2019-05-07T13:39:42.961Z,8.60
2019-05-07T13:42:29.343Z,8.60
2019-05-07T13:45:04.034Z,8.60
2019-05-07T13:47:35.040Z,8.70
2019-05-07T13:50:04.328Z,8.50
2019-05-07T13:52:35.614Z,8.60
2019-05-07T13:55:06.414Z,8.60
2019-05-07T13:57:35.205Z,8.80
2019-05-07T14:00:06.518Z,8.80
2019-05-07T14:02:35.366Z,8.90
2019-05-07T14:05:05.506Z,9.00
2019-05-07T14:07:35.941Z,8.90
2019-05-07T14:10:05.666Z,8.80
2019-05-07T14:12:34.620Z,8.90
2019-05-07T14:15:03.829Z,9.00
2019-05-07T14:17:32.643Z,9.10
2019-05-07T14:20:01.878Z,9.20
2019-05-07T14:22:32.069Z,9.20
2019-05-07T14:25:01.902Z,9.10
2019-05-07T14:27:32.185Z,9.00
2019-05-07T14:30:02.709Z,9.10
2019-05-07T14:32:36.394Z,9.20
2019-05-07T14:35:09.404Z,9.20
2019-05-07T14:37:41.721Z,9.30
2019-05-07T14:40:12.975Z,9.40
2019-05-07T14:42:52.579Z,9.40
2019-05-07T14:45:23.568Z,9.60
2019-05-07T14:47:52.297Z,9.40
2019-05-07T14:50:22.584Z,9.50
2019-05-07T14:52:52.368Z,9.60
2019-05-07T14:55:22.611Z,9.70
2019-05-07T14:57:52.449Z,9.90
2019-05-07T15:00:22.604Z,9.80
2019-05-07T15:02:52.481Z,9.90
2019-05-07T15:05:22.459Z,9.80
2019-05-07T15:07:51.420Z,10.00
2019-05-07T15:10:22.317Z,9.90
2019-05-07T15:12:52.180Z,9.80
2019-05-07T15:15:21.961Z,9.70
2019-05-07T15:17:55.566Z,9.50
2019-05-07T15:20:24.373Z,9.50
2019-05-07T15:23:02.666Z,9.70
2019-05-07T15:25:32.070Z,9.70
2019-05-07T15:28:01.765Z,9.70
2019-05-07T15:30:32.575Z,9.90
2019-05-07T15:33:02.284Z,9.70
2019-05-07T15:35:32.026Z,9.30
2019-05-07T15:38:02.491Z,9.40
2019-05-07T15:40:32.957Z,9.30
2019-05-07T15:43:02.238Z,9.30
2019-05-07T15:45:31.178Z,9.20
2019-05-07T15:48:02.002Z,9.20
2019-05-07T15:50:32.269Z,9.00
2019-05-07T15:53:17.786Z,9.20
2019-05-07T15:56:06.649Z,9.10
2019-05-07T15:58:35.847Z,9.20
2019-05-07T16:01:04.664Z,9.00
2019-05-07T16:03:46.853Z,9.10
2019-05-07T16:06:15.641Z,9.10
2019-05-07T16:08:52.045Z,9.00
2019-05-07T16:11:23.020Z,9.10
2019-05-07T16:14:04.713Z,9.10
2019-05-07T16:16:35.200Z,9.00
2019-05-07T16:19:06.474Z,9.00
2019-05-07T16:21:35.217Z,9.00
2019-05-07T16:24:04.244Z,9.00
2019-05-07T16:26:33.166Z,9.10
2019-05-07T16:29:04.322Z,9.10
2019-05-07T16:31:33.273Z,9.10
2019-05-07T16:34:02.547Z,9.10
2019-05-07T16:36:32.879Z,9.00
2019-05-07T16:39:03.425Z,8.90
2019-05-07T16:41:32.388Z,9.00
2019-05-07T16:44:02.890Z,9.10
2019-05-07T16:46:31.670Z,9.10
2019-05-07T16:49:02.314Z,9.10
2019-05-07T16:51:32.875Z,9.20
2019-05-07T16:54:03.254Z,9.30
2019-05-07T16:56:33.335Z,9.30
2019-05-07T16:59:07.675Z,9.10
2019-05-07T17:01:36.547Z,9.20
2019-05-07T17:04:05.834Z,9.10
2019-05-07T17:06:34.557Z,9.00
2019-05-07T17:09:07.739Z,9.00
2019-05-07T17:11:37.335Z,9.10
2019-05-07T17:14:06.161Z,9.20
2019-05-07T17:16:34.996Z,9.10
2019-05-07T17:19:05.381Z,8.90
2019-05-07T17:21:34.111Z,9.00
2019-05-07T17:24:02.924Z,9.00
2019-05-07T17:26:31.641Z,9.00
2019-05-07T17:29:02.510Z,8.80
2019-05-07T17:31:31.878Z,8.90
2019-05-07T17:34:02.224Z,8.90
2019-05-07T17:36:33.079Z,9.00
2019-05-07T17:39:02.674Z,9.00
2019-05-07T17:41:32.319Z,8.90
2019-05-07T17:44:02.741Z,8.90
2019-05-07T17:46:32.439Z,9.00
2019-05-07T17:49:02.503Z,8.70
2019-05-07T17:51:42.499Z,8.80
2019-05-07T17:54:13.380Z,8.80
2019-05-07T17:56:42.991Z,8.70
2019-05-07T17:59:12.338Z,8.70
2019-05-07T18:01:45.985Z,8.80
2019-05-07T18:04:14.794Z,8.80
2019-05-07T18:06:43.575Z,8.70
2019-05-07T18:09:12.416Z,8.70
2019-05-07T18:11:42.912Z,8.60
2019-05-07T18:14:11.734Z,8.70
2019-05-07T18:16:45.121Z,8.70
2019-05-07T18:19:13.843Z,8.70
2019-05-07T18:21:42.642Z,8.60
2019-05-07T18:24:16.414Z,8.60
2019-05-07T18:26:42.822Z,8.50
2019-05-07T18:29:11.936Z,8.40
2019-05-07T18:31:58.429Z,8.50
2019-05-07T18:34:27.291Z,8.50
2019-05-07T18:36:57.265Z,8.60
2019-05-07T18:39:25.942Z,8.60
2019-05-07T18:41:55.987Z,8.60
2019-05-07T18:44:24.736Z,8.50
2019-05-07T18:46:53.564Z,8.50
2019-05-07T18:49:22.405Z,8.50
2019-05-07T18:51:52.132Z,8.50
2019-05-07T18:54:30.637Z,8.50
2019-05-07T18:56:52.909Z,8.50
2019-05-07T18:59:35.879Z,8.50
2019-05-07T19:02:04.807Z,8.50
2019-05-07T19:04:33.603Z,8.30
2019-05-07T19:07:02.665Z,8.30
2019-05-07T19:09:32.045Z,8.30
2019-05-07T19:12:00.990Z,8.30
2019-05-07T19:14:29.893Z,8.30
2019-05-07T19:16:58.735Z,8.20
2019-05-07T19:19:27.553Z,8.20
2019-05-07T19:21:56.260Z,8.20
2019-05-07T19:24:26.341Z,8.20
2019-05-07T19:26:55.370Z,8.10
2019-05-07T19:29:24.113Z,8.10
2019-05-07T19:31:52.852Z,8.10
2019-05-07T19:34:21.927Z,8.10
2019-05-07T19:36:52.071Z,8.00
2019-05-07T19:39:23.590Z,8.00
2019-05-07T19:41:52.505Z,7.90
2019-05-07T19:44:21.342Z,7.90
2019-05-07T19:46:52.224Z,7.80
2019-05-07T19:49:20.620Z,7.80
2019-05-07T19:51:52.289Z,7.90
2019-05-07T19:54:19.966Z,7.80
2019-05-07T19:56:48.718Z,7.80
2019-05-07T19:59:17.630Z,7.80
2019-05-07T20:01:48.090Z,7.80
2019-05-07T20:04:16.829Z,7.80
2019-05-07T20:06:45.607Z,7.80
2019-05-07T20:09:16.069Z,7.90
2019-05-07T20:11:46.466Z,7.90
2019-05-07T20:14:15.289Z,8.00
2019-05-07T20:16:44.106Z,7.90
2019-05-07T20:19:12.843Z,7.90
2019-05-07T20:21:43.990Z,7.90
2019-05-07T20:24:12.768Z,7.90
2019-05-07T20:26:43.062Z,7.90
2019-05-07T20:29:12.486Z,7.90
2019-05-07T20:31:42.449Z,8.00
2019-05-07T20:34:13.028Z,7.90
2019-05-07T20:36:42.736Z,7.90
2019-05-07T20:39:12.785Z,7.80
2019-05-07T20:41:42.909Z,7.70
2019-05-07T20:44:12.155Z,7.70
2019-05-07T20:46:42.128Z,7.80
2019-05-07T20:49:13.149Z,7.70
2019-05-07T20:51:41.937Z,7.70
2019-05-07T20:54:15.093Z,7.70
2019-05-07T20:56:48.447Z,7.60
2019-05-07T20:59:17.233Z,7.70
2019-05-07T21:01:46.092Z,7.60
2019-05-07T21:04:14.899Z,7.60
2019-05-07T21:06:43.629Z,7.60
2019-05-07T21:09:12.751Z,7.60
2019-05-07T21:11:43.105Z,7.50
2019-05-07T21:14:12.255Z,7.40
2019-05-07T21:16:42.545Z,7.40
2019-05-07T21:19:12.807Z,7.40
2019-05-07T21:21:42.288Z,7.40
2019-05-07T21:24:13.002Z,7.30
2019-05-07T21:26:42.484Z,7.30
2019-05-07T21:29:13.623Z,7.30
2019-05-07T21:31:43.051Z,7.40
2019-05-07T21:34:12.624Z,7.30
2019-05-07T21:36:43.236Z,7.30
2019-05-07T21:39:12.981Z,7.30
2019-05-07T21:41:42.817Z,7.20
2019-05-07T21:44:12.822Z,7.20
2019-05-07T21:46:42.569Z,7.10
2019-05-07T21:49:12.267Z,7.20
2019-05-07T21:51:41.393Z,7.20
2019-05-07T21:54:12.186Z,7.30
2019-05-07T21:56:59.253Z,7.20
2019-05-07T21:59:35.609Z,7.10
2019-05-07T22:02:04.925Z,7.10
2019-05-07T22:04:33.653Z,7.10
2019-05-07T22:07:02.950Z,7.10
2019-05-07T22:09:33.026Z,7.10
2019-05-07T22:12:03.735Z,7.10
2019-05-07T22:14:32.895Z,7.10
2019-05-07T22:17:02.128Z,7.10
2019-05-07T22:19:33.554Z,7.10
2019-05-07T22:22:02.918Z,7.00
2019-05-07T22:24:32.905Z,7.10
2019-05-07T22:27:02.085Z,7.10
2019-05-07T22:29:32.189Z,7.10
2019-05-07T22:32:05.532Z,7.00
2019-05-07T22:34:42.281Z,7.00
2019-05-07T22:37:12.618Z,7.00
2019-05-07T22:39:41.529Z,7.00
2019-05-07T22:42:11.895Z,7.00
2019-05-07T22:44:42.529Z,6.90
2019-05-07T22:47:22.652Z,6.80
2019-05-07T22:49:53.611Z,6.80
2019-05-07T22:52:22.443Z,6.80
2019-05-07T22:54:51.538Z,6.80
2019-05-07T22:57:34.037Z,6.80
2019-05-07T23:00:04.679Z,6.90
2019-05-07T23:02:34.753Z,6.80
2019-05-07T23:05:04.172Z,6.90
2019-05-07T23:07:32.998Z,7.00
2019-05-07T23:10:02.797Z,7.00
2019-05-07T23:12:32.708Z,7.00
2019-05-07T23:15:02.729Z,7.00
2019-05-07T23:17:32.608Z,7.00
2019-05-07T23:20:01.619Z,7.00
2019-05-07T23:22:32.361Z,7.00
2019-05-07T23:25:00.730Z,7.00
2019-05-07T23:27:29.533Z,7.10
2019-05-07T23:29:58.306Z,7.00
2019-05-07T23:32:27.042Z,7.10
2019-05-07T23:34:56.207Z,7.10
2019-05-07T23:37:26.298Z,7.20
2019-05-07T23:39:59.671Z,7.20
2019-05-07T23:42:33.202Z,7.20
2019-05-07T23:45:02.126Z,7.20
2019-05-07T23:47:31.778Z,7.20
2019-05-07T23:50:02.051Z,7.30
2019-05-07T23:52:30.844Z,7.20
2019-05-07T23:54:59.680Z,7.30
2019-05-07T23:57:28.522Z,7.30
2019-05-07T23:59:57.252Z,7.30
